sensor_id;sensor_type;location;lat;lon;timestamp;P1;durP1;ratioP1;P2;durP2;ratioP2
69573;SDS011;62840;52.366;5.980;2022-09-11T00:01:13;13.82;;;7.20;;
69573;SDS011;62840;52.366;5.980;2022-09-11T00:03:43;14.30;;;7.32;;
69573;SDS011;62840;52.366;5.980;2022-09-11T00:06:11;14.43;;;7.05;;
69573;SDS011;62840;52.366;5.980;2022-09-11T00:08:40;14.85;;;7.40;;
69573;SDS011;62840;52.366;5.980;2022-09-11T00:11:07;16.30;;;7.90;;
69573;SDS011;62840;52.366;5.980;2022-09-11T00:13:37;12.93;;;6.82;;
69573;SDS011;62840;52.366;5.980;2022-09-11T00:16:04;14.77;;;7.57;;
69573;SDS011;62840;52.366;5.980;2022-09-11T00:18:43;16.00;;;8.13;;
69573;SDS011;62840;52.366;5.980;2022-09-11T00:21:09;16.40;;;7.63;;
69573;SDS011;62840;52.366;5.980;2022-09-11T00:23:35;15.52;;;7.45;;
69573;SDS011;62840;52.366;5.980;2022-09-11T00:26:01;18.05;;;8.27;;
69573;SDS011;62840;52.366;5.980;2022-09-11T00:28:28;15.07;;;7.40;;
69573;SDS011;62840;52.366;5.980;2022-09-11T00:30:55;15.52;;;7.28;;
69573;SDS011;62840;52.366;5.980;2022-09-11T00:33:23;15.05;;;7.05;;
69573;SDS011;62840;52.366;5.980;2022-09-11T00:35:55;16.93;;;8.20;;
69573;SDS011;62840;52.366;5.980;2022-09-11T00:38:23;17.13;;;8.02;;
69573;SDS011;62840;52.366;5.980;2022-09-11T00:40:50;17.90;;;8.45;;
69573;SDS011;62840;52.366;5.980;2022-09-11T00:43:16;15.40;;;7.97;;
69573;SDS011;62840;52.366;5.980;2022-09-11T00:45:42;15.32;;;8.00;;
69573;SDS011;62840;52.366;5.980;2022-09-11T00:48:09;15.02;;;7.43;;
69573;SDS011;62840;52.366;5.980;2022-09-11T00:50:42;16.08;;;7.57;;
69573;SDS011;62840;52.366;5.980;2022-09-11T00:53:12;16.00;;;8.15;;
69573;SDS011;62840;52.366;5.980;2022-09-11T00:55:42;15.83;;;7.43;;
69573;SDS011;62840;52.366;5.980;2022-09-11T00:58:15;17.70;;;8.50;;
69573;SDS011;62840;52.366;5.980;2022-09-11T01:00:46;19.23;;;8.80;;
69573;SDS011;62840;52.366;5.980;2022-09-11T01:03:15;16.48;;;7.32;;
69573;SDS011;62840;52.366;5.980;2022-09-11T01:05:41;15.83;;;8.10;;
69573;SDS011;62840;52.366;5.980;2022-09-11T01:08:07;15.63;;;7.13;;
69573;SDS011;62840;52.366;5.980;2022-09-11T01:10:37;15.90;;;7.30;;
69573;SDS011;62840;52.366;5.980;2022-09-11T01:13:26;16.85;;;8.50;;
69573;SDS011;62840;52.366;5.980;2022-09-11T01:16:03;15.85;;;8.20;;
69573;SDS011;62840;52.366;5.980;2022-09-11T01:18:40;15.07;;;8.10;;
69573;SDS011;62840;52.366;5.980;2022-09-11T01:21:22;16.70;;;8.07;;
69573;SDS011;62840;52.366;5.980;2022-09-11T01:24:24;15.07;;;8.05;;
69573;SDS011;62840;52.366;5.980;2022-09-11T01:30:06;16.90;;;8.32;;
69573;SDS011;62840;52.366;5.980;2022-09-11T01:32:40;17.98;;;8.40;;
69573;SDS011;62840;52.366;5.980;2022-09-11T01:35:30;16.67;;;7.78;;
69573;SDS011;62840;52.366;5.980;2022-09-11T01:38:08;18.90;;;8.32;;
69573;SDS011;62840;52.366;5.980;2022-09-11T01:40:42;18.25;;;8.48;;
69573;SDS011;62840;52.366;5.980;2022-09-11T01:43:20;16.00;;;8.40;;
69573;SDS011;62840;52.366;5.980;2022-09-11T01:45:52;17.40;;;7.85;;
69573;SDS011;62840;52.366;5.980;2022-09-11T01:48:23;16.63;;;7.57;;
69573;SDS011;62840;52.366;5.980;2022-09-11T01:50:53;16.33;;;8.68;;
69573;SDS011;62840;52.366;5.980;2022-09-11T01:53:23;16.95;;;8.02;;
69573;SDS011;62840;52.366;5.980;2022-09-11T01:55:57;16.58;;;7.45;;
69573;SDS011;62840;52.366;5.980;2022-09-11T01:58:33;19.67;;;8.25;;
69573;SDS011;62840;52.366;5.980;2022-09-11T02:01:02;15.98;;;7.70;;
69573;SDS011;62840;52.366;5.980;2022-09-11T02:03:34;16.90;;;8.38;;
69573;SDS011;62840;52.366;5.980;2022-09-11T02:06:07;15.63;;;7.70;;
69573;SDS011;62840;52.366;5.980;2022-09-11T02:08:40;15.65;;;7.30;;
69573;SDS011;62840;52.366;5.980;2022-09-11T02:11:12;16.15;;;7.60;;
69573;SDS011;62840;52.366;5.980;2022-09-11T02:13:45;15.52;;;7.60;;
69573;SDS011;62840;52.366;5.980;2022-09-11T02:16:27;19.38;;;8.27;;
69573;SDS011;62840;52.366;5.980;2022-09-11T02:19:09;16.02;;;7.85;;
69573;SDS011;62840;52.366;5.980;2022-09-11T02:21:39;16.42;;;8.10;;
69573;SDS011;62840;52.366;5.980;2022-09-11T02:24:05;15.75;;;7.82;;
69573;SDS011;62840;52.366;5.980;2022-09-11T02:26:32;15.90;;;7.80;;
69573;SDS011;62840;52.366;5.980;2022-09-11T02:29:08;16.08;;;7.90;;
69573;SDS011;62840;52.366;5.980;2022-09-11T02:31:35;18.25;;;8.70;;
69573;SDS011;62840;52.366;5.980;2022-09-11T02:34:02;16.25;;;8.20;;
69573;SDS011;62840;52.366;5.980;2022-09-11T02:36:33;16.83;;;8.63;;
69573;SDS011;62840;52.366;5.980;2022-09-11T02:39:32;17.45;;;8.43;;
69573;SDS011;62840;52.366;5.980;2022-09-11T02:42:21;16.92;;;8.63;;
69573;SDS011;62840;52.366;5.980;2022-09-11T02:45:02;18.70;;;8.60;;
69573;SDS011;62840;52.366;5.980;2022-09-11T02:47:45;19.52;;;9.40;;
69573;SDS011;62840;52.366;5.980;2022-09-11T02:50:31;19.33;;;9.32;;
69573;SDS011;62840;52.366;5.980;2022-09-11T02:53:08;18.77;;;8.48;;
69573;SDS011;62840;52.366;5.980;2022-09-11T02:55:43;18.10;;;8.82;;
69573;SDS011;62840;52.366;5.980;2022-09-11T02:58:25;18.80;;;8.95;;
69573;SDS011;62840;52.366;5.980;2022-09-11T03:00:59;17.08;;;8.68;;
69573;SDS011;62840;52.366;5.980;2022-09-11T03:03:27;19.88;;;8.60;;
69573;SDS011;62840;52.366;5.980;2022-09-11T03:06:01;19.42;;;9.15;;
69573;SDS011;62840;52.366;5.980;2022-09-11T03:08:27;19.20;;;8.50;;
69573;SDS011;62840;52.366;5.980;2022-09-11T03:10:53;16.67;;;8.77;;
69573;SDS011;62840;52.366;5.980;2022-09-11T03:13:19;18.80;;;8.43;;
69573;SDS011;62840;52.366;5.980;2022-09-11T03:15:45;15.95;;;7.50;;
69573;SDS011;62840;52.366;5.980;2022-09-11T03:18:13;17.97;;;8.23;;
69573;SDS011;62840;52.366;5.980;2022-09-11T03:20:39;18.00;;;8.35;;
69573;SDS011;62840;52.366;5.980;2022-09-11T03:23:08;17.00;;;7.88;;
69573;SDS011;62840;52.366;5.980;2022-09-11T03:25:34;18.83;;;9.00;;
69573;SDS011;62840;52.366;5.980;2022-09-11T03:27:59;17.58;;;8.57;;
69573;SDS011;62840;52.366;5.980;2022-09-11T03:30:25;18.50;;;9.43;;
69573;SDS011;62840;52.366;5.980;2022-09-11T03:32:51;16.77;;;7.72;;
69573;SDS011;62840;52.366;5.980;2022-09-11T03:35:19;18.13;;;7.90;;
69573;SDS011;62840;52.366;5.980;2022-09-11T03:37:45;17.65;;;7.88;;
69573;SDS011;62840;52.366;5.980;2022-09-11T03:40:11;19.13;;;9.02;;
69573;SDS011;62840;52.366;5.980;2022-09-11T03:42:37;18.50;;;8.57;;
69573;SDS011;62840;52.366;5.980;2022-09-11T03:45:03;17.27;;;8.30;;
69573;SDS011;62840;52.366;5.980;2022-09-11T03:47:30;17.95;;;7.95;;
69573;SDS011;62840;52.366;5.980;2022-09-11T03:49:55;18.67;;;8.30;;
69573;SDS011;62840;52.366;5.980;2022-09-11T03:52:23;17.77;;;7.80;;
69573;SDS011;62840;52.366;5.980;2022-09-11T03:54:49;15.93;;;7.53;;
69573;SDS011;62840;52.366;5.980;2022-09-11T03:57:15;16.23;;;7.50;;
69573;SDS011;62840;52.366;5.980;2022-09-11T03:59:41;15.23;;;7.27;;
69573;SDS011;62840;52.366;5.980;2022-09-11T04:02:06;19.00;;;7.30;;
69573;SDS011;62840;52.366;5.980;2022-09-11T04:04:32;15.77;;;7.13;;
69573;SDS011;62840;52.366;5.980;2022-09-11T04:06:58;16.88;;;6.75;;
69573;SDS011;62840;52.366;5.980;2022-09-11T04:09:26;15.77;;;6.83;;
69573;SDS011;62840;52.366;5.980;2022-09-11T04:11:52;15.20;;;7.10;;
69573;SDS011;62840;52.366;5.980;2022-09-11T04:14:17;14.30;;;6.78;;
69573;SDS011;62840;52.366;5.980;2022-09-11T04:16:43;14.67;;;6.90;;
69573;SDS011;62840;52.366;5.980;2022-09-11T04:19:09;14.98;;;6.43;;
69573;SDS011;62840;52.366;5.980;2022-09-11T04:21:35;16.13;;;6.40;;
69573;SDS011;62840;52.366;5.980;2022-09-11T04:24:01;19.53;;;8.33;;
69573;SDS011;62840;52.366;5.980;2022-09-11T04:26:30;17.50;;;8.15;;
69573;SDS011;62840;52.366;5.980;2022-09-11T04:28:57;18.60;;;8.18;;
69573;SDS011;62840;52.366;5.980;2022-09-11T04:31:24;18.10;;;8.18;;
69573;SDS011;62840;52.366;5.980;2022-09-11T04:33:50;16.20;;;7.82;;
69573;SDS011;62840;52.366;5.980;2022-09-11T04:36:17;17.52;;;7.93;;
69573;SDS011;62840;52.366;5.980;2022-09-11T04:38:43;18.38;;;7.93;;
69573;SDS011;62840;52.366;5.980;2022-09-11T04:41:10;17.03;;;7.77;;
69573;SDS011;62840;52.366;5.980;2022-09-11T04:43:39;16.70;;;7.40;;
69573;SDS011;62840;52.366;5.980;2022-09-11T04:46:07;16.85;;;7.45;;
69573;SDS011;62840;52.366;5.980;2022-09-11T04:48:41;17.08;;;7.60;;
69573;SDS011;62840;52.366;5.980;2022-09-11T04:51:08;17.70;;;7.70;;
69573;SDS011;62840;52.366;5.980;2022-09-11T04:53:34;18.15;;;7.95;;
69573;SDS011;62840;52.366;5.980;2022-09-11T04:56:00;14.90;;;7.05;;
69573;SDS011;62840;52.366;5.980;2022-09-11T04:58:28;15.80;;;7.28;;
69573;SDS011;62840;52.366;5.980;2022-09-11T05:00:56;15.35;;;6.43;;
69573;SDS011;62840;52.366;5.980;2022-09-11T05:03:22;15.30;;;6.80;;
69573;SDS011;62840;52.366;5.980;2022-09-11T05:05:48;17.00;;;6.37;;
69573;SDS011;62840;52.366;5.980;2022-09-11T05:08:14;15.88;;;7.30;;
69573;SDS011;62840;52.366;5.980;2022-09-11T05:10:40;15.85;;;6.90;;
69573;SDS011;62840;52.366;5.980;2022-09-11T05:13:06;13.70;;;6.60;;
69573;SDS011;62840;52.366;5.980;2022-09-11T05:15:31;14.20;;;6.40;;
69573;SDS011;62840;52.366;5.980;2022-09-11T05:18:00;13.40;;;6.77;;
69573;SDS011;62840;52.366;5.980;2022-09-11T05:20:25;13.27;;;6.30;;
69573;SDS011;62840;52.366;5.980;2022-09-11T05:22:51;13.85;;;6.93;;
69573;SDS011;62840;52.366;5.980;2022-09-11T05:25:17;14.93;;;6.53;;
69573;SDS011;62840;52.366;5.980;2022-09-11T05:27:42;14.25;;;6.10;;
69573;SDS011;62840;52.366;5.980;2022-09-11T05:30:09;12.40;;;5.60;;
69573;SDS011;62840;52.366;5.980;2022-09-11T05:32:36;12.73;;;5.85;;
69573;SDS011;62840;52.366;5.980;2022-09-11T05:35:05;15.50;;;7.00;;
69573;SDS011;62840;52.366;5.980;2022-09-11T05:37:31;14.40;;;6.43;;
69573;SDS011;62840;52.366;5.980;2022-09-11T05:39:57;15.45;;;6.28;;
69573;SDS011;62840;52.366;5.980;2022-09-11T05:42:23;16.37;;;6.57;;
69573;SDS011;62840;52.366;5.980;2022-09-11T05:44:49;14.45;;;6.65;;
69573;SDS011;62840;52.366;5.980;2022-09-11T05:47:15;12.57;;;5.93;;
69573;SDS011;62840;52.366;5.980;2022-09-11T05:49:40;14.02;;;6.10;;
69573;SDS011;62840;52.366;5.980;2022-09-11T05:52:09;12.63;;;5.90;;
69573;SDS011;62840;52.366;5.980;2022-09-11T05:54:34;12.23;;;5.60;;
69573;SDS011;62840;52.366;5.980;2022-09-11T05:57:00;11.95;;;5.75;;
69573;SDS011;62840;52.366;5.980;2022-09-11T05:59:26;15.57;;;6.03;;
69573;SDS011;62840;52.366;5.980;2022-09-11T06:01:52;12.30;;;5.90;;
69573;SDS011;62840;52.366;5.980;2022-09-11T06:04:17;11.97;;;5.60;;
69573;SDS011;62840;52.366;5.980;2022-09-11T06:06:43;12.68;;;5.60;;
69573;SDS011;62840;52.366;5.980;2022-09-11T06:09:12;13.30;;;5.80;;
69573;SDS011;62840;52.366;5.980;2022-09-11T06:11:38;13.13;;;5.70;;
69573;SDS011;62840;52.366;5.980;2022-09-11T06:14:03;13.40;;;5.37;;
69573;SDS011;62840;52.366;5.980;2022-09-11T06:16:29;11.90;;;5.68;;
69573;SDS011;62840;52.366;5.980;2022-09-11T06:18:55;13.67;;;6.10;;
69573;SDS011;62840;52.366;5.980;2022-09-11T06:21:22;12.38;;;5.80;;
69573;SDS011;62840;52.366;5.980;2022-09-11T06:23:50;13.50;;;6.20;;
69573;SDS011;62840;52.366;5.980;2022-09-11T06:26:20;13.23;;;6.00;;
69573;SDS011;62840;52.366;5.980;2022-09-11T06:28:49;15.45;;;5.35;;
69573;SDS011;62840;52.366;5.980;2022-09-11T06:31:16;12.30;;;5.63;;
69573;SDS011;62840;52.366;5.980;2022-09-11T06:33:45;13.73;;;5.72;;
69573;SDS011;62840;52.366;5.980;2022-09-11T06:36:12;11.57;;;5.68;;
69573;SDS011;62840;52.366;5.980;2022-09-11T06:38:40;12.43;;;5.90;;
69573;SDS011;62840;52.366;5.980;2022-09-11T06:41:06;11.03;;;5.47;;
69573;SDS011;62840;52.366;5.980;2022-09-11T06:43:37;12.65;;;6.05;;
69573;SDS011;62840;52.366;5.980;2022-09-11T06:46:03;12.45;;;5.88;;
69573;SDS011;62840;52.366;5.980;2022-09-11T06:48:31;11.27;;;5.60;;
69573;SDS011;62840;52.366;5.980;2022-09-11T06:51:00;10.93;;;5.07;;
69573;SDS011;62840;52.366;5.980;2022-09-11T06:53:27;11.18;;;5.30;;
69573;SDS011;62840;52.366;5.980;2022-09-11T06:55:53;10.70;;;5.13;;
69573;SDS011;62840;52.366;5.980;2022-09-11T06:58:23;10.68;;;5.03;;
69573;SDS011;62840;52.366;5.980;2022-09-11T07:00:52;9.45;;;5.03;;
69573;SDS011;62840;52.366;5.980;2022-09-11T07:03:17;9.95;;;4.95;;
69573;SDS011;62840;52.366;5.980;2022-09-11T07:05:44;11.23;;;5.00;;
69573;SDS011;62840;52.366;5.980;2022-09-11T07:08:10;11.07;;;4.95;;
69573;SDS011;62840;52.366;5.980;2022-09-11T07:10:35;9.85;;;4.80;;
69573;SDS011;62840;52.366;5.980;2022-09-11T07:13:01;10.13;;;4.97;;
69573;SDS011;62840;52.366;5.980;2022-09-11T07:15:27;10.60;;;5.22;;
69573;SDS011;62840;52.366;5.980;2022-09-11T07:17:55;10.50;;;5.37;;
69573;SDS011;62840;52.366;5.980;2022-09-11T07:20:21;11.60;;;4.88;;
69573;SDS011;62840;52.366;5.980;2022-09-11T07:22:47;10.32;;;4.72;;
69573;SDS011;62840;52.366;5.980;2022-09-11T07:25:13;10.47;;;4.53;;
69573;SDS011;62840;52.366;5.980;2022-09-11T07:27:39;11.40;;;4.70;;
69573;SDS011;62840;52.366;5.980;2022-09-11T07:30:05;9.82;;;4.82;;
69573;SDS011;62840;52.366;5.980;2022-09-11T07:32:32;9.77;;;4.70;;
69573;SDS011;62840;52.366;5.980;2022-09-11T07:35:01;10.25;;;5.10;;
69573;SDS011;62840;52.366;5.980;2022-09-11T07:37:27;9.38;;;5.32;;
69573;SDS011;62840;52.366;5.980;2022-09-11T07:39:53;11.43;;;4.60;;
69573;SDS011;62840;52.366;5.980;2022-09-11T07:42:19;9.60;;;4.70;;
69573;SDS011;62840;52.366;5.980;2022-09-11T07:44:45;8.98;;;4.60;;
69573;SDS011;62840;52.366;5.980;2022-09-11T07:47:10;10.90;;;5.30;;
69573;SDS011;62840;52.366;5.980;2022-09-11T07:49:36;10.37;;;5.13;;
69573;SDS011;62840;52.366;5.980;2022-09-11T07:52:04;9.65;;;4.80;;
69573;SDS011;62840;52.366;5.980;2022-09-11T07:54:30;11.63;;;5.67;;
69573;SDS011;62840;52.366;5.980;2022-09-11T07:56:56;11.02;;;5.38;;
69573;SDS011;62840;52.366;5.980;2022-09-11T07:59:22;13.17;;;6.57;;
69573;SDS011;62840;52.366;5.980;2022-09-11T08:01:48;14.23;;;6.78;;
69573;SDS011;62840;52.366;5.980;2022-09-11T08:04:14;13.27;;;6.55;;
69573;SDS011;62840;52.366;5.980;2022-09-11T08:06:40;11.77;;;6.13;;
69573;SDS011;62840;52.366;5.980;2022-09-11T08:09:10;12.85;;;6.47;;
69573;SDS011;62840;52.366;5.980;2022-09-11T08:11:39;13.60;;;6.77;;
69573;SDS011;62840;52.366;5.980;2022-09-11T08:14:07;13.10;;;6.65;;
69573;SDS011;62840;52.366;5.980;2022-09-11T08:16:34;15.10;;;6.97;;
69573;SDS011;62840;52.366;5.980;2022-09-11T08:18:59;15.43;;;7.60;;
69573;SDS011;62840;52.366;5.980;2022-09-11T08:21:26;14.55;;;7.68;;
69573;SDS011;62840;52.366;5.980;2022-09-11T08:23:52;12.95;;;7.10;;
69573;SDS011;62840;52.366;5.980;2022-09-11T08:26:21;12.93;;;7.03;;
69573;SDS011;62840;52.366;5.980;2022-09-11T08:28:51;10.85;;;6.18;;
69573;SDS011;62840;52.366;5.980;2022-09-11T08:31:19;13.13;;;6.43;;
69573;SDS011;62840;52.366;5.980;2022-09-11T08:33:48;10.95;;;6.13;;
69573;SDS011;62840;52.366;5.980;2022-09-11T08:36:14;12.20;;;5.43;;
69573;SDS011;62840;52.366;5.980;2022-09-11T08:38:40;9.43;;;5.00;;
69573;SDS011;62840;52.366;5.980;2022-09-11T08:41:08;8.88;;;4.88;;
69573;SDS011;62840;52.366;5.980;2022-09-11T08:43:47;10.05;;;5.00;;
69573;SDS011;62840;52.366;5.980;2022-09-11T08:46:17;13.45;;;5.10;;
69573;SDS011;62840;52.366;5.980;2022-09-11T08:51:39;10.32;;;4.80;;
69573;SDS011;62840;52.366;5.980;2022-09-11T08:54:08;8.88;;;5.00;;
69573;SDS011;62840;52.366;5.980;2022-09-11T08:56:47;8.80;;;5.00;;
69573;SDS011;62840;52.366;5.980;2022-09-11T08:59:21;8.73;;;4.53;;
69573;SDS011;62840;52.366;5.980;2022-09-11T09:02:17;8.52;;;5.07;;
69573;SDS011;62840;52.366;5.980;2022-09-11T09:05:09;7.35;;;4.63;;
69573;SDS011;62840;52.366;5.980;2022-09-11T09:07:53;6.78;;;4.15;;
69573;SDS011;62840;52.366;5.980;2022-09-11T09:10:41;8.50;;;4.90;;
69573;SDS011;62840;52.366;5.980;2022-09-11T09:13:35;8.50;;;4.07;;
69573;SDS011;62840;52.366;5.980;2022-09-11T09:16:30;8.13;;;4.55;;
69573;SDS011;62840;52.366;5.980;2022-09-11T09:19:10;6.75;;;4.40;;
69573;SDS011;62840;52.366;5.980;2022-09-11T09:21:45;8.70;;;4.60;;
69573;SDS011;62840;52.366;5.980;2022-09-11T09:24:26;8.23;;;3.97;;
69573;SDS011;62840;52.366;5.980;2022-09-11T09:26:58;7.93;;;4.30;;
69573;SDS011;62840;52.366;5.980;2022-09-11T09:29:30;8.15;;;3.80;;
69573;SDS011;62840;52.366;5.980;2022-09-11T09:32:06;6.22;;;4.10;;
69573;SDS011;62840;52.366;5.980;2022-09-11T09:34:41;8.85;;;4.22;;
69573;SDS011;62840;52.366;5.980;2022-09-11T09:37:12;7.68;;;4.07;;
69573;SDS011;62840;52.366;5.980;2022-09-11T09:39:42;6.28;;;4.03;;
69573;SDS011;62840;52.366;5.980;2022-09-11T09:42:13;7.10;;;4.10;;
69573;SDS011;62840;52.366;5.980;2022-09-11T09:45:01;6.70;;;3.83;;
69573;SDS011;62840;52.366;5.980;2022-09-11T09:47:48;6.05;;;3.20;;
69573;SDS011;62840;52.366;5.980;2022-09-11T09:50:15;7.35;;;3.40;;
69573;SDS011;62840;52.366;5.980;2022-09-11T09:52:45;5.47;;;3.03;;
69573;SDS011;62840;52.366;5.980;2022-09-11T09:55:14;5.13;;;3.13;;
69573;SDS011;62840;52.366;5.980;2022-09-11T09:57:43;6.15;;;3.10;;
69573;SDS011;62840;52.366;5.980;2022-09-11T10:00:13;5.60;;;3.20;;
69573;SDS011;62840;52.366;5.980;2022-09-11T10:02:42;5.32;;;3.00;;
69573;SDS011;62840;52.366;5.980;2022-09-11T10:05:21;5.03;;;2.78;;
69573;SDS011;62840;52.366;5.980;2022-09-11T10:07:52;4.88;;;2.70;;
69573;SDS011;62840;52.366;5.980;2022-09-11T10:10:25;6.68;;;2.90;;
69573;SDS011;62840;52.366;5.980;2022-09-11T10:12:54;4.85;;;2.95;;
69573;SDS011;62840;52.366;5.980;2022-09-11T10:15:26;4.85;;;2.70;;
69573;SDS011;62840;52.366;5.980;2022-09-11T10:17:53;4.97;;;2.65;;
69573;SDS011;62840;52.366;5.980;2022-09-11T10:20:50;5.00;;;2.90;;
69573;SDS011;62840;52.366;5.980;2022-09-11T10:23:23;7.13;;;2.80;;
69573;SDS011;62840;52.366;5.980;2022-09-11T10:25:51;4.88;;;2.45;;
69573;SDS011;62840;52.366;5.980;2022-09-11T10:28:19;4.28;;;2.58;;
69573;SDS011;62840;52.366;5.980;2022-09-11T10:30:56;3.88;;;2.17;;
69573;SDS011;62840;52.366;5.980;2022-09-11T10:33:26;5.20;;;3.40;;
69573;SDS011;62840;52.366;5.980;2022-09-11T10:35:58;6.15;;;2.92;;
69573;SDS011;62840;52.366;5.980;2022-09-11T10:38:29;5.13;;;2.72;;
69573;SDS011;62840;52.366;5.980;2022-09-11T10:41:02;4.18;;;2.55;;
69573;SDS011;62840;52.366;5.980;2022-09-11T10:43:45;4.18;;;2.30;;
69573;SDS011;62840;52.366;5.980;2022-09-11T10:46:21;5.53;;;2.22;;
69573;SDS011;62840;52.366;5.980;2022-09-11T10:48:59;5.55;;;2.58;;
69573;SDS011;62840;52.366;5.980;2022-09-11T10:51:54;5.22;;;2.60;;
69573;SDS011;62840;52.366;5.980;2022-09-11T10:54:27;6.30;;;2.70;;
69573;SDS011;62840;52.366;5.980;2022-09-11T10:57:08;5.38;;;2.60;;
69573;SDS011;62840;52.366;5.980;2022-09-11T10:59:44;6.60;;;3.03;;
69573;SDS011;62840;52.366;5.980;2022-09-11T11:02:28;5.40;;;2.55;;
69573;SDS011;62840;52.366;5.980;2022-09-11T11:04:57;6.68;;;2.95;;
69573;SDS011;62840;52.366;5.980;2022-09-11T11:10:42;4.25;;;2.15;;
69573;SDS011;62840;52.366;5.980;2022-09-11T11:13:30;4.32;;;2.30;;
69573;SDS011;62840;52.366;5.980;2022-09-11T11:16:28;5.60;;;2.35;;
69573;SDS011;62840;52.366;5.980;2022-09-11T11:19:18;4.60;;;2.45;;
69573;SDS011;62840;52.366;5.980;2022-09-11T11:22:05;4.43;;;2.30;;
69573;SDS011;62840;52.366;5.980;2022-09-11T11:24:52;4.90;;;2.55;;
69573;SDS011;62840;52.366;5.980;2022-09-11T11:27:44;4.47;;;2.10;;
69573;SDS011;62840;52.366;5.980;2022-09-11T11:30:45;5.38;;;2.20;;
69573;SDS011;62840;52.366;5.980;2022-09-11T11:33:32;3.40;;;2.10;;
69573;SDS011;62840;52.366;5.980;2022-09-11T11:36:24;3.45;;;1.65;;
69573;SDS011;62840;52.366;5.980;2022-09-11T11:38:59;5.38;;;2.10;;
69573;SDS011;62840;52.366;5.980;2022-09-11T11:41:43;3.55;;;1.88;;
69573;SDS011;62840;52.366;5.980;2022-09-11T11:44:16;4.60;;;2.08;;
69573;SDS011;62840;52.366;5.980;2022-09-11T11:47:00;4.13;;;2.30;;
69573;SDS011;62840;52.366;5.980;2022-09-11T11:49:38;3.97;;;2.20;;
69573;SDS011;62840;52.366;5.980;2022-09-11T11:52:18;5.82;;;2.92;;
69573;SDS011;62840;52.366;5.980;2022-09-11T11:55:06;5.22;;;2.92;;
69573;SDS011;62840;52.366;5.980;2022-09-11T11:57:46;4.72;;;2.20;;
69573;SDS011;62840;52.366;5.980;2022-09-11T12:00:22;4.07;;;2.17;;
69573;SDS011;62840;52.366;5.980;2022-09-11T12:02:50;4.25;;;2.08;;
69573;SDS011;62840;52.366;5.980;2022-09-11T12:05:22;4.07;;;1.98;;
69573;SDS011;62840;52.366;5.980;2022-09-11T12:07:53;4.50;;;2.20;;
69573;SDS011;62840;52.366;5.980;2022-09-11T12:10:26;5.10;;;1.83;;
69573;SDS011;62840;52.366;5.980;2022-09-11T12:13:00;3.70;;;1.90;;
69573;SDS011;62840;52.366;5.980;2022-09-11T12:15:31;5.43;;;2.40;;
69573;SDS011;62840;52.366;5.980;2022-09-11T12:17:59;4.30;;;2.05;;
69573;SDS011;62840;52.366;5.980;2022-09-11T12:20:37;4.30;;;2.30;;
69573;SDS011;62840;52.366;5.980;2022-09-11T12:23:05;4.70;;;2.42;;
69573;SDS011;62840;52.366;5.980;2022-09-11T12:26:05;4.20;;;1.90;;
69573;SDS011;62840;52.366;5.980;2022-09-11T12:28:44;4.05;;;2.00;;
69573;SDS011;62840;52.366;5.980;2022-09-11T12:31:10;4.40;;;2.10;;
69573;SDS011;62840;52.366;5.980;2022-09-11T12:33:48;6.65;;;2.65;;
69573;SDS011;62840;52.366;5.980;2022-09-11T12:36:20;3.97;;;2.15;;
69573;SDS011;62840;52.366;5.980;2022-09-11T12:38:54;5.30;;;2.08;;
69573;SDS011;62840;52.366;5.980;2022-09-11T12:41:25;4.60;;;1.90;;
69573;SDS011;62840;52.366;5.980;2022-09-11T12:43:56;4.22;;;1.73;;
69573;SDS011;62840;52.366;5.980;2022-09-11T12:49:35;3.85;;;2.13;;
69573;SDS011;62840;52.366;5.980;2022-09-11T12:52:05;4.22;;;2.00;;
69573;SDS011;62840;52.366;5.980;2022-09-11T12:54:54;3.58;;;1.55;;
69573;SDS011;62840;52.366;5.980;2022-09-11T12:57:28;3.53;;;1.83;;
69573;SDS011;62840;52.366;5.980;2022-09-11T13:00:04;4.32;;;2.10;;
69573;SDS011;62840;52.366;5.980;2022-09-11T13:02:44;4.20;;;1.90;;
69573;SDS011;62840;52.366;5.980;2022-09-11T13:05:21;5.05;;;1.98;;
69573;SDS011;62840;52.366;5.980;2022-09-11T13:07:53;3.30;;;1.70;;
69573;SDS011;62840;52.366;5.980;2022-09-11T13:10:31;4.38;;;2.00;;
69573;SDS011;62840;52.366;5.980;2022-09-11T13:12:59;4.22;;;1.60;;
69573;SDS011;62840;52.366;5.980;2022-09-11T13:15:42;4.38;;;1.90;;
69573;SDS011;62840;52.366;5.980;2022-09-11T13:18:19;3.30;;;1.80;;
69573;SDS011;62840;52.366;5.980;2022-09-11T13:20:56;3.03;;;1.60;;
69573;SDS011;62840;52.366;5.980;2022-09-11T13:23:36;4.35;;;1.83;;
69573;SDS011;62840;52.366;5.980;2022-09-11T13:26:02;3.20;;;1.70;;
69573;SDS011;62840;52.366;5.980;2022-09-11T13:28:30;3.78;;;1.80;;
69573;SDS011;62840;52.366;5.980;2022-09-11T13:31:14;3.50;;;2.00;;
69573;SDS011;62840;52.366;5.980;2022-09-11T13:33:46;4.50;;;1.92;;
69573;SDS011;62840;52.366;5.980;2022-09-11T13:36:14;3.90;;;1.80;;
69573;SDS011;62840;52.366;5.980;2022-09-11T13:38:46;3.55;;;2.00;;
69573;SDS011;62840;52.366;5.980;2022-09-11T13:41:18;3.92;;;2.15;;
69573;SDS011;62840;52.366;5.980;2022-09-11T13:43:51;4.15;;;2.13;;
69573;SDS011;62840;52.366;5.980;2022-09-11T13:46:24;3.47;;;2.08;;
69573;SDS011;62840;52.366;5.980;2022-09-11T13:48:53;3.30;;;1.90;;
69573;SDS011;62840;52.366;5.980;2022-09-11T13:51:43;3.88;;;1.70;;
69573;SDS011;62840;52.366;5.980;2022-09-11T13:54:12;4.65;;;1.90;;
69573;SDS011;62840;52.366;5.980;2022-09-11T13:56:43;4.38;;;1.83;;
69573;SDS011;62840;52.366;5.980;2022-09-11T13:59:33;4.95;;;2.30;;
69573;SDS011;62840;52.366;5.980;2022-09-11T14:02:04;4.70;;;1.90;;
69573;SDS011;62840;52.366;5.980;2022-09-11T14:04:47;3.85;;;1.90;;
69573;SDS011;62840;52.366;5.980;2022-09-11T14:07:18;3.70;;;2.10;;
69573;SDS011;62840;52.366;5.980;2022-09-11T14:09:47;4.10;;;1.80;;
69573;SDS011;62840;52.366;5.980;2022-09-11T14:12:22;4.60;;;2.22;;
69573;SDS011;62840;52.366;5.980;2022-09-11T14:14:49;4.30;;;1.53;;
69573;SDS011;62840;52.366;5.980;2022-09-11T14:17:23;4.63;;;1.90;;
69573;SDS011;62840;52.366;5.980;2022-09-11T14:19:50;4.20;;;2.10;;
69573;SDS011;62840;52.366;5.980;2022-09-11T14:22:22;5.10;;;2.47;;
69573;SDS011;62840;52.366;5.980;2022-09-11T14:24:54;6.00;;;2.20;;
69573;SDS011;62840;52.366;5.980;2022-09-11T14:27:35;4.70;;;2.00;;
69573;SDS011;62840;52.366;5.980;2022-09-11T14:35:51;5.70;;;2.40;;
69573;SDS011;62840;52.366;5.980;2022-09-11T14:38:26;4.45;;;2.35;;
69573;SDS011;62840;52.366;5.980;2022-09-11T14:40:53;4.80;;;2.28;;
69573;SDS011;62840;52.366;5.980;2022-09-11T14:43:24;4.20;;;1.95;;
69573;SDS011;62840;52.366;5.980;2022-09-11T14:45:53;4.50;;;2.38;;
69573;SDS011;62840;52.366;5.980;2022-09-11T14:48:19;4.27;;;2.37;;
69573;SDS011;62840;52.366;5.980;2022-09-11T14:50:48;5.28;;;2.65;;
69573;SDS011;62840;52.366;5.980;2022-09-11T14:53:15;4.18;;;2.30;;
69573;SDS011;62840;52.366;5.980;2022-09-11T14:55:46;4.15;;;2.40;;
69573;SDS011;62840;52.366;5.980;2022-09-11T14:58:12;4.03;;;2.00;;
69573;SDS011;62840;52.366;5.980;2022-09-11T15:00:38;4.53;;;2.35;;
69573;SDS011;62840;52.366;5.980;2022-09-11T15:03:03;3.70;;;2.33;;
69573;SDS011;62840;52.366;5.980;2022-09-11T15:05:29;6.03;;;2.47;;
69573;SDS011;62840;52.366;5.980;2022-09-11T15:07:57;4.83;;;2.80;;
69573;SDS011;62840;52.366;5.980;2022-09-11T15:10:23;4.50;;;2.78;;
69573;SDS011;62840;52.366;5.980;2022-09-11T15:12:49;4.55;;;2.55;;
69573;SDS011;62840;52.366;5.980;2022-09-11T15:15:14;4.40;;;2.53;;
69573;SDS011;62840;52.366;5.980;2022-09-11T15:17:40;4.55;;;2.85;;
69573;SDS011;62840;52.366;5.980;2022-09-11T15:20:06;6.87;;;3.00;;
69573;SDS011;62840;52.366;5.980;2022-09-11T15:22:33;5.03;;;2.60;;
69573;SDS011;62840;52.366;5.980;2022-09-11T15:25:01;5.22;;;2.92;;